ADDS TAF Board (Experimental) INFO Settings
IDs: Format: Expanded Condensed

KDCA - Washington/National, VA, US

Issued at 1140 UTC 07 Jul 2015
Updated at: 1313 UTC 07 Jul 2015
Time1252Z 07/14Z 07/15Z 07/16Z 07/17Z 07/18Z 07/19Z 07/20Z 07/21Z 07/22Z 07/23Z 08/00Z 08/01Z 08/02Z
Type OBS PRVL PRVL PRVL PRVL PRVL PRVL PRVL PRVL PRVL PRVL PRVL PRVL PRVL
VIS 10 >6 >6 >6 >6 >6 >6 >6 >6 >6 >6 >6 >6 >6
CIG -- -- -- -- -- -- -- -- -- -- -- -- -- --
Cover SCT SCT SCT SCT SCT SCT SCT SCT SCT SCT SCT SCT SCT SCT
FltCat VFR VFR VFR VFR VFR VFR VFR VFR VFR VFR VFR VFR VFR VFR
WX -- -- -- -- -- -- -- -- -- -- -- -- -- --
WDir 250 210 210 210 210 210 190 190 190 190 190 190 190 190
WSpd 4 8 8 8 8 8 12 12 12 12 12 12 12 12
WGst -- -- -- -- -- -- -- -- -- -- -- -- -- --
R01/19
XWnd 4 5 5 5 5 5 3 3 3 3 3 3 3 3
HWnd -1 -7 -7 -7 -7 -7 -12 -12 -12 -12 -12 -12 -12 -12
R04/22
XWnd 3 1 1 1 1 1 -3 -3 -3 -3 -3 -3 -3 -3
HWnd -3 -8 -8 -8 -8 -8 -12 -12 -12 -12 -12 -12 -12 -12
R15/33
XWnd -4 -7 -7 -7 -7 -7 -9 -9 -9 -9 -9 -9 -9 -9
HWnd -1 3 3 3 3 3 8 8 8 8 8 8 8 8

NOTE: TEMPO conditions in [brackets]. Keep in mind TEMPO conditions might be better (lower impact) than prevailing conditions.

Raw TAF
KDCA 071140Z 0712/0812 22007KT P6SM BKN009 OVC025
  FM071400 21008KT P6SM SCT012 SCT040
  FM071900 19012KT P6SM SCT070
  FM080300 22006KT P6SM BKN060


Raw METAR
KDCA 071252Z 25004KT 10SM FEW012 SCT060 27/22 A3007 RMK AO2 SLP183 T02720222
KDCA 071213Z 23004KT 10SM SCT009 SCT060 26/22 A3007 RMK AO2
KDCA 071152Z 24006KT 10SM BKN009 BKN055 25/22 A3007 RMK AO2 SLP183 70001 T02500217 10256 20239 53015
KDCA 071123Z 22006KT 10SM BKN009 BKN025 25/22 A3006 RMK AO2
KDCA 071052Z 20004KT 10SM FEW008 SCT025 SCT250 24/22 A3004 RMK AO2 SLP173 T02440217

METAR Board
Radar Display
Forecast Discussion

TAF Board Legend

Potential Impact
Threat None Slight Moderate High
Visibility (sm) ≥5.1 5.1>X≥3 3>X≥1 <1
Ceiling (100 ft) ≥30.1 30.1>X≥10 10>X≥5 <5
Wind Speed (kt) <10 10≤X<20 20≤X<30 ≥30
Wind Gust (kt) <15 15≤X<25 25≤X<35 ≥35
Weather No Wx Reported VCTS,-TS,-FZRA,SN TS,FZRA +TS,+FZRA,+SN